Time;durP1;ratioP1;P1;durP2;ratioP2;P2;SDS_P1;SDS_P2;PMS_P1;PMS_P2;Temp;Humidity;BMP_temperature;BMP_pressure;BME280_temperature;BME280_humidity;BME280_pressure;Samples;Min_cycle;Max_cycle;Signal;HPM_P1;HPM_P2
2021/08/24 00:00:17;;;;;;;185.63;8.20;;;;;;;14.55;68.74;100735.09;10443816;28;20080;-59
2021/08/24 00:05:28;;;;;;;111.50;8.30;;;;;;;14.57;68.62;100725.31;10444786;28;20083;-58
2021/08/24 00:10:37;;;;;;;369.50;11.55;;;;;;;14.38;68.57;100732.69;10443397;28;20095;-59
2021/08/24 00:15:39;;;;;;;160.73;7.85;;;;;;;14.25;68.72;100734.38;10444480;28;20079;-59
2021/08/24 00:20:42;;;;;;;323.35;12.57;;;;;;;14.13;68.97;100745.66;10444249;28;20057;-58
2021/08/24 00:25:47;;;;;;;274.45;10.65;;;;;;;14.06;69.07;100746.13;10444109;28;20156;-59
2021/08/24 00:30:49;;;;;;;161.13;7.47;;;;;;;14.02;69.49;100749.88;10444000;28;20132;-59
2021/08/24 00:35:51;;;;;;;173.55;8.40;;;;;;;13.93;69.35;100739.91;10442489;28;20152;-62
2021/08/24 00:41:01;;;;;;;170.38;7.60;;;;;;;13.98;69.77;100753.66;10445351;28;20144;-59
2021/08/24 00:46:14;;;;;;;97.78;5.95;;;;;;;13.94;69.66;100755.63;10442932;28;20084;-62
2021/08/24 00:51:23;;;;;;;135.70;6.93;;;;;;;13.95;69.57;100754.66;10443439;28;20140;-59
2021/08/24 00:56:25;;;;;;;183.32;9.02;;;;;;;13.87;69.07;100753.44;10443853;28;20136;-59
2021/08/24 01:01:27;;;;;;;501.73;14.25;;;;;;;13.94;68.93;100745.09;10445078;28;20099;-62
2021/08/24 01:06:45;;;;;;;232.07;8.30;;;;;;;13.90;69.43;100753.25;10442979;28;20056;-61
2021/08/24 01:12:21;;;;;;;223.32;7.32;;;;;;;13.96;69.15;100756.38;10444303;28;20492;-61
2021/08/24 01:17:28;;;;;;;169.07;6.82;;;;;;;13.92;68.68;100767.16;10443560;28;20530;-62
2021/08/24 01:22:39;;;;;;;150.02;6.53;;;;;;;13.83;68.57;100770.34;10431720;28;20465;-61
2021/08/24 01:27:51;;;;;;;140.10;7.05;;;;;;;13.75;68.78;100761.13;10456329;28;20788;-61
2021/08/24 01:33:21;;;;;;;246.32;7.70;;;;;;;13.55;68.87;100760.63;10457417;28;20051;-61
2021/08/24 01:38:26;;;;;;;137.57;7.18;;;;;;;13.49;68.93;100766.25;10427382;28;20056;-61
2021/08/24 01:43:38;;;;;;;206.77;7.80;;;;;;;13.53;68.73;100767.75;10457251;28;20602;-61
2021/08/24 01:48:46;;;;;;;302.30;8.88;;;;;;;13.47;68.92;100757.59;10457692;28;20147;-61
2021/08/24 01:54:01;;;;;;;210.93;8.48;;;;;;;13.39;68.92;100754.53;10446706;28;20139;-61
2021/08/24 01:59:19;;;;;;;121.28;5.50;;;;;;;13.41;68.89;100765.81;10429983;28;20044;-61
2021/08/24 02:04:30;;;;;;;118.13;5.35;;;;;;;13.40;68.98;100757.06;10462891;28;20084;-61
2021/08/24 02:09:41;;;;;;;607.45;19.02;;;;;;;13.40;68.37;100762.31;10463948;28;20092;-61
2021/08/24 02:14:44;;;;;;;89.88;4.82;;;;;;;13.37;68.73;100772.19;10463706;28;20057;-61
2021/08/24 02:19:55;;;;;;;346.33;9.20;;;;;;;13.30;68.16;100776.06;10465134;28;20087;-61
2021/08/24 02:25:23;;;;;;;81.43;4.03;;;;;;;13.20;68.69;100767.03;10461552;28;20657;-61
2021/08/24 02:30:29;;;;;;;466.52;11.02;;;;;;;13.24;68.70;100769.41;10461925;28;20080;-61
2021/08/24 02:35:43;;;;;;;171.23;5.78;;;;;;;13.28;68.72;100781.44;10458167;28;20056;-61
2021/08/24 02:41:07;;;;;;;326.45;8.60;;;;;;;13.25;68.26;100778.13;10458523;28;20509;-60
2021/08/24 02:46:20;;;;;;;533.58;12.00;;;;;;;13.09;68.58;100783.41;10437361;28;20414;-60
2021/08/24 02:51:23;;;;;;;76.90;3.65;;;;;;;13.08;68.79;100786.13;10416973;28;20077;-61
2021/08/24 02:56:25;;;;;;;721.33;20.17;;;;;;;12.91;68.53;100790.53;10436920;28;20131;-60
2021/08/24 03:01:26;;;;;;;404.10;9.48;;;;;;;12.96;68.39;100790.28;10457719;28;20076;-61
2021/08/24 03:06:32;;;;;;;117.00;4.53;;;;;;;13.07;68.60;100787.88;10450735;28;20091;-61
2021/08/24 03:11:41;;;;;;;499.63;12.48;;;;;;;13.04;68.69;100790.72;10451236;28;20128;-61
2021/08/24 03:16:53;;;;;;;472.02;13.63;;;;;;;12.96;68.30;100788.50;10449601;28;20044;-61
2021/08/24 03:21:57;;;;;;;754.83;19.75;;;;;;;12.88;68.11;100789.88;10449828;28;20346;-61
2021/08/24 03:26:59;;;;;;;333.10;10.20;;;;;;;12.74;68.54;100790.63;10410625;28;20483;-61
2021/08/24 03:32:04;;;;;;;508.38;13.63;;;;;;;12.74;68.77;100787.16;10408317;28;20129;-61
2021/08/24 03:37:05;;;;;;;494.27;13.02;;;;;;;12.75;68.59;100783.59;10447361;28;20472;-61
2021/08/24 03:42:07;;;;;;;222.30;6.78;;;;;;;12.71;68.79;100785.56;10448584;28;20895;-61
2021/08/24 03:47:12;;;;;;;404.58;11.57;;;;;;;12.67;68.52;100791.91;10408409;28;20052;-61
2021/08/24 03:52:13;;;;;;;360.13;8.30;;;;;;;12.47;69.00;100789.50;10407764;28;20557;-61
2021/08/24 03:57:15;;;;;;;100.93;3.60;;;;;;;12.53;68.82;100790.94;10448966;28;20128;-60
2021/08/24 04:02:17;;;;;;;74.60;3.40;;;;;;;12.55;68.83;100800.44;10447020;28;20858;-61
2021/08/24 04:07:19;;;;;;;372.02;8.10;;;;;;;12.52;68.49;100797.97;10419040;28;20061;-61
2021/08/24 04:12:21;;;;;;;112.55;4.28;;;;;;;12.45;68.79;100803.63;10447000;28;20136;-60
2021/08/24 04:17:23;;;;;;;104.55;4.40;;;;;;;12.38;68.91;100804.88;10447629;28;20786;-61
2021/08/24 04:22:25;;;;;;;171.85;5.10;;;;;;;12.44;68.74;100805.41;10443298;28;20461;-61
2021/08/24 04:27:27;;;;;;;161.68;4.72;;;;;;;12.45;68.90;100803.63;10406050;28;20508;-60
2021/08/24 04:32:29;;;;;;;84.75;4.05;;;;;;;12.46;68.67;100811.41;10409586;28;20041;-61
2021/08/24 04:37:31;;;;;;;101.72;4.22;;;;;;;12.47;68.67;100812.28;10446961;28;20080;-60
2021/08/24 04:42:34;;;;;;;35.58;2.58;;;;;;;12.57;68.53;100808.22;10442163;28;20132;-61
2021/08/24 04:47:35;;;;;;;116.38;4.22;;;;;;;12.63;68.15;100806.13;10435111;28;20135;-60
2021/08/24 04:52:37;;;;;;;132.10;4.13;;;;;;;12.44;68.38;100810.66;10441661;28;20552;-61
2021/08/24 04:57:39;;;;;;;64.35;3.10;;;;;;;12.53;68.27;100820.66;10405410;28;20141;-60
2021/08/24 05:02:41;;;;;;;165.65;4.40;;;;;;;12.59;67.88;100828.22;10408948;28;20072;-60
2021/08/24 05:07:43;;;;;;;195.15;5.28;;;;;;;12.47;67.71;100826.25;10445899;28;20477;-61
2021/08/24 05:12:44;;;;;;;53.53;3.10;;;;;;;12.49;67.94;100832.25;10445043;28;20453;-60
2021/08/24 05:17:50;;;;;;;603.15;14.57;;;;;;;12.55;67.40;100831.06;10445928;28;20608;-60
2021/08/24 05:22:52;;;;;;;510.63;10.65;;;;;;;12.51;67.43;100838.28;10440250;28;20045;-60
2021/08/24 05:27:54;;;;;;;314.65;6.90;;;;;;;12.64;67.07;100843.72;10404925;28;20145;-61
2021/08/24 05:32:56;;;;;;;65.63;3.05;;;;;;;12.79;67.12;100837.63;10421974;28;20655;-62
2021/08/24 05:37:58;;;;;;;129.85;4.43;;;;;;;12.93;66.62;100846.44;10444489;28;20132;-63
2021/08/24 05:43:00;;;;;;;430.45;10.45;;;;;;;12.84;66.24;100841.69;10425844;28;20137;-62
2021/08/24 05:48:01;;;;;;;107.35;4.28;;;;;;;12.89;66.62;100852.78;10403704;28;20084;-63
2021/08/24 05:53:03;;;;;;;344.50;8.23;;;;;;;13.26;65.87;100862.09;10422396;28;20049;-62
2021/08/24 05:58:05;;;;;;;44.80;2.45;;;;;;;13.27;65.90;100853.28;10445017;28;20111;-62
2021/08/24 06:03:07;;;;;;;106.28;3.30;;;;;;;13.36;65.90;100859.78;10424875;28;20665;-63
2021/08/24 06:08:10;;;;;;;173.90;4.32;;;;;;;13.47;65.28;100852.19;10421507;28;20156;-63
2021/08/24 06:13:11;;;;;;;215.00;5.00;;;;;;;13.56;65.07;100855.13;10411260;28;20160;-63
2021/08/24 06:18:13;;;;;;;213.48;4.50;;;;;;;13.62;64.73;100852.16;10407842;28;20141;-62
2021/08/24 06:23:15;;;;;;;17.50;1.90;;;;;;;13.72;64.97;100848.06;10444639;28;20139;-61
2021/08/24 06:28:18;;;;;;;17.65;1.77;;;;;;;13.82;64.43;100858.06;10447623;28;20084;-61
2021/08/24 06:33:25;;;;;;;14.95;1.80;;;;;;;14.04;63.90;100858.47;10448755;28;20056;-60
2021/08/24 06:38:27;;;;;;;10.43;1.80;;;;;;;14.20;63.47;100862.75;10449876;28;20500;-62
2021/08/24 06:43:29;;;;;;;9.40;1.60;;;;;;;14.80;62.60;100849.44;10428482;28;20056;-62
2021/08/24 06:48:31;;;;;;;3.92;1.83;;;;;;;15.26;61.47;100856.09;10408837;28;20132;-62
2021/08/24 06:53:33;;;;;;;3.72;1.60;;;;;;;15.46;60.59;100857.44;10437806;28;20637;-62
2021/08/24 06:58:35;;;;;;;3.53;1.70;;;;;;;15.72;60.41;100846.91;10449036;28;20516;-62
2021/08/24 07:03:37;;;;;;;1.77;1.30;;;;;;;15.65;60.37;100848.28;10439279;28;20594;-61
2021/08/24 07:08:38;;;;;;;4.13;1.70;;;;;;;15.49;60.82;100852.81;10423433;28;20621;-61
2021/08/24 07:13:40;;;;;;;5.68;1.90;;;;;;;15.44;60.96;100847.00;10407481;28;20132;-61
2021/08/24 07:18:42;;;;;;;6.50;2.00;;;;;;;15.04;60.67;100853.16;10406733;28;20149;-61
2021/08/24 07:23:44;;;;;;;3.00;1.80;;;;;;;15.04;61.20;100858.41;10444711;28;20469;-62
2021/08/24 07:28:46;;;;;;;4.15;1.98;;;;;;;14.94;62.22;100862.56;10448009;28;20132;-62
2021/08/24 07:33:47;;;;;;;4.32;2.10;;;;;;;14.92;63.08;100853.94;10445822;28;20041;-62
2021/08/24 07:38:49;;;;;;;5.28;2.13;;;;;;;15.02;63.01;100853.22;10406046;28;20136;-62
2021/08/24 07:43:53;;;;;;;5.07;2.15;;;;;;;16.10;61.40;100853.06;10406357;28;20602;-62
2021/08/24 07:48:54;;;;;;;6.63;2.45;;;;;;;17.21;58.61;100843.44;10404466;28;20742;-62
2021/08/24 07:53:59;;;;;;;5.72;2.17;;;;;;;17.74;56.69;100844.78;10435782;28;20045;-62
2021/08/24 07:59:01;;;;;;;6.05;2.35;;;;;;;18.31;54.03;100844.84;10446762;28;20549;-62
2021/08/24 08:04:03;;;;;;;6.50;2.17;;;;;;;18.57;52.84;100838.34;10447360;28;20482;-62
2021/08/24 08:09:06;;;;;;;5.15;2.50;;;;;;;18.98;51.25;100838.56;10459128;28;20158;-62
2021/08/24 08:14:09;;;;;;;5.13;2.47;;;;;;;19.18;50.76;100839.63;10444965;28;20134;-62
2021/08/24 08:19:11;;;;;;;4.65;2.30;;;;;;;19.21;49.66;100837.59;10446383;28;20053;-62
2021/08/24 08:24:13;;;;;;;6.53;2.50;;;;;;;19.41;49.30;100834.16;10446051;28;20128;-62
2021/08/24 08:29:14;;;;;;;5.07;2.58;;;;;;;19.36;48.17;100831.00;10444196;28;20081;-62
2021/08/24 08:34:18;;;;;;;4.70;2.10;;;;;;;19.75;47.92;100829.53;10447180;28;20084;-62
2021/08/24 08:39:20;;;;;;;9.05;2.20;;;;;;;19.87;47.56;100828.53;10446652;28;20095;-62
2021/08/24 08:44:36;;;;;;;5.05;2.25;;;;;;;19.92;46.03;100820.19;10411742;28;20085;-62
2021/08/24 08:50:06;;;;;;;6.10;2.03;;;;;;;20.02;43.51;100826.41;10405522;28;20080;-62
2021/08/24 08:55:59;;;;;;;8.63;2.33;;;;;;;20.40;44.73;100826.59;10416733;28;20083;-62
2021/08/24 09:01:14;;;;;;;4.25;1.90;;;;;;;20.12;44.15;100840.56;10413122;28;20053;-62
2021/08/24 09:06:17;;;;;;;4.05;1.92;;;;;;;19.24;47.25;100841.78;10445491;28;20049;-62
2021/08/24 09:11:27;;;;;;;6.60;2.10;;;;;;;19.34;47.61;100845.38;10444804;28;20132;-62
2021/08/24 09:16:38;;;;;;;5.28;2.65;;;;;;;19.01;47.32;100845.44;10445250;28;20055;-62
2021/08/24 09:21:45;;;;;;;4.78;2.10;;;;;;;20.07;44.88;100837.47;10443688;28;20110;-62
2021/08/24 09:26:57;;;;;;;6.18;2.42;;;;;;;21.08;43.17;100824.09;10445574;28;20133;-62
2021/08/24 09:32:02;;;;;;;5.85;2.78;;;;;;;21.55;42.47;100821.63;10445756;28;20076;-62
2021/08/24 09:37:04;;;;;;;8.20;2.80;;;;;;;21.18;43.25;100817.91;10414808;28;20256;-62
2021/08/24 09:42:08;;;;;;;4.78;2.67;;;;;;;21.09;43.60;100816.91;10409796;28;20486;-62
2021/08/24 09:47:22;;;;;;;5.88;2.67;;;;;;;20.47;43.51;100819.78;10412482;28;20140;-62
2021/08/24 09:52:25;;;;;;;6.38;2.72;;;;;;;21.32;42.46;100814.88;10412869;28;20080;-63
2021/08/24 09:57:32;;;;;;;5.55;2.60;;;;;;;20.94;43.29;100828.94;10412263;28;20077;-63
2021/08/24 10:02:46;;;;;;;5.13;2.60;;;;;;;21.93;41.36;100818.94;10411794;28;20061;-63
2021/08/24 10:07:50;;;;;;;5.22;1.90;;;;;;;21.55;42.78;100811.84;10427247;28;20057;-63
2021/08/24 10:12:54;;;;;;;5.80;1.88;;;;;;;21.82;42.91;100805.78;10438730;28;20124;-62
2021/08/24 10:18:24;;;;;;;4.13;1.90;;;;;;;21.98;41.62;100806.03;10410883;28;20486;-62
2021/08/24 10:23:39;;;;;;;8.13;2.72;;;;;;;21.97;41.55;100796.34;10405162;28;20128;-63
2021/08/24 10:28:46;;;;;;;6.22;2.28;;;;;;;21.76;42.13;100785.06;10410889;28;20473;-62
2021/08/24 10:33:54;;;;;;;6.47;2.40;;;;;;;21.90;41.84;100785.44;10410977;28;20077;-63
2021/08/24 10:39:02;;;;;;;5.20;2.53;;;;;;;22.31;41.45;100784.22;10446829;28;20128;-63
2021/08/24 10:44:16;;;;;;;5.88;2.30;;;;;;;22.38;41.21;100780.00;10451477;28;20087;-63
2021/08/24 10:49:19;;;;;;;5.13;2.17;;;;;;;22.06;41.18;100784.88;10450969;28;20072;-63
2021/08/24 10:54:29;;;;;;;4.45;2.15;;;;;;;21.53;42.76;100786.34;10449982;28;20297;-63
2021/08/24 10:59:52;;;;;;;6.95;2.40;;;;;;;21.40;43.39;100780.44;10445306;28;20865;-63
2021/08/24 11:05:33;;;;;;;5.47;2.47;;;;;;;21.98;42.51;100786.53;10409392;28;20045;-64
2021/08/24 11:10:42;;;;;;;6.90;2.20;;;;;;;22.15;42.29;100789.31;10448166;28;20148;-63
2021/08/24 11:15:49;;;;;;;4.90;2.42;;;;;;;21.61;42.92;100792.63;10450959;28;20083;-63
2021/08/24 11:21:19;;;;;;;4.40;2.00;;;;;;;22.11;42.54;100787.13;10443683;28;20135;-62
2021/08/24 11:26:32;;;;;;;3.97;2.05;;;;;;;21.65;42.13;100793.19;10441674;28;20482;-62
2021/08/24 11:31:46;;;;;;;5.88;2.40;;;;;;;21.38;42.53;100803.69;10449357;28;20183;-63
2021/08/24 11:37:03;;;;;;;4.55;2.17;;;;;;;21.26;43.50;100799.44;10437024;28;20048;-63
2021/08/24 11:42:07;;;;;;;5.07;2.15;;;;;;;21.24;43.05;100806.72;10408098;28;20103;-63
2021/08/24 11:47:13;;;;;;;7.18;2.53;;;;;;;21.46;42.38;100801.16;10406805;28;20140;-62
2021/08/24 11:52:46;;;;;;;9.00;2.75;;;;;;;21.41;42.49;100806.09;10407564;28;20132;-62
2021/08/24 11:58:24;;;;;;;5.45;2.63;;;;;;;21.14;42.13;100808.53;10407124;28;20458;-62
2021/08/24 12:03:26;;;;;;;5.05;2.53;;;;;;;21.78;43.02;100807.88;10406772;28;20128;-62
2021/08/24 12:08:32;;;;;;;7.28;2.42;;;;;;;22.11;42.86;100814.56;10428607;28;20053;-62
2021/08/24 12:13:41;;;;;;;5.18;2.35;;;;;;;22.17;42.64;100806.00;10447035;28;20119;-62
2021/08/24 12:18:43;;;;;;;5.07;2.60;;;;;;;22.04;42.88;100813.50;10420948;28;20137;-62
2021/08/24 12:23:45;;;;;;;6.68;2.90;;;;;;;22.07;43.10;100823.03;10414524;28;20888;-62
2021/08/24 12:28:47;;;;;;;4.15;2.38;;;;;;;21.97;42.32;100843.44;10447067;28;20080;-61
2021/08/24 12:33:49;;;;;;;8.30;3.00;;;;;;;21.94;43.38;100822.44;10447149;28;20132;-62
2021/08/24 12:38:53;;;;;;;4.60;2.50;;;;;;;22.13;42.80;100817.94;10447611;28;20140;-62
2021/08/24 12:44:17;;;;;;;5.63;2.53;;;;;;;21.90;42.66;100819.22;10446283;28;20079;-62
2021/08/24 12:49:21;;;;;;;5.80;2.10;;;;;;;21.65;44.15;100812.66;10445025;28;20135;-62
2021/08/24 12:54:30;;;;;;;3.80;2.08;;;;;;;21.80;42.43;100818.41;10425573;28;20076;-62
2021/08/24 12:59:39;;;;;;;4.40;2.20;;;;;;;21.29;43.03;100820.47;10404670;28;20088;-62
2021/08/24 13:04:47;;;;;;;5.07;2.00;;;;;;;21.28;41.53;100824.09;10404087;28;22326;-62
2021/08/24 13:09:53;;;;;;;7.15;2.55;;;;;;;20.93;43.90;100822.78;10437456;28;20053;-61
2021/08/24 13:14:57;;;;;;;7.10;2.30;;;;;;;20.88;44.62;100814.38;10429722;28;20093;-65
2021/08/24 13:20:02;;;;;;;7.13;2.38;;;;;;;20.67;45.00;100813.59;10404065;28;20081;-64
2021/08/24 13:25:09;;;;;;;3.70;2.15;;;;;;;20.44;44.02;100812.06;10405351;28;20128;-63
2021/08/24 13:30:16;;;;;;;5.25;2.58;;;;;;;20.99;43.72;100813.41;10413749;28;20116;-63
2021/08/24 13:35:20;;;;;;;5.47;2.45;;;;;;;21.44;42.82;100809.31;10444966;28;20080;-63
2021/08/24 13:40:28;;;;;;;6.03;2.60;;;;;;;21.45;42.11;100794.19;10443017;28;20464;-64
2021/08/24 13:45:34;;;;;;;6.20;2.50;;;;;;;21.42;42.15;100786.47;10431688;28;20135;-64
2021/08/24 13:50:37;;;;;;;4.10;2.40;;;;;;;21.65;41.90;100783.38;10440527;28;20044;-64
2021/08/24 13:55:40;;;;;;;5.25;2.40;;;;;;;21.62;42.08;100780.16;10403139;28;20077;-64
2021/08/24 14:00:53;;;;;;;5.18;2.47;;;;;;;21.48;42.58;100777.91;10404009;28;20077;-63
2021/08/24 14:06:01;;;;;;;5.97;2.63;;;;;;;21.56;41.31;100772.72;10404195;28;20061;-63
2021/08/24 14:11:04;;;;;;;5.32;2.40;;;;;;;21.47;41.43;100760.28;10444834;28;20095;-63
2021/08/24 14:16:11;;;;;;;4.82;2.20;;;;;;;21.41;41.86;100760.84;10442314;28;20072;-63
2021/08/24 14:21:16;;;;;;;4.63;2.38;;;;;;;21.57;41.73;100758.44;10440033;28;20057;-62
2021/08/24 14:26:23;;;;;;;4.65;2.30;;;;;;;21.35;42.02;100764.06;10445425;28;20115;-64
2021/08/24 14:31:30;;;;;;;4.10;2.13;;;;;;;21.71;41.66;100758.00;10450571;28;20835;-63
2021/08/24 14:36:35;;;;;;;3.95;2.20;;;;;;;21.93;41.42;100755.00;10447280;28;20045;-63
2021/08/24 14:42:01;;;;;;;3.42;2.00;;;;;;;22.24;40.22;100769.81;10450429;28;20132;-63
2021/08/24 14:47:34;;;;;;;4.97;2.08;;;;;;;22.12;39.76;100760.31;10448959;28;20527;-63
2021/08/24 14:52:48;;;;;;;5.70;2.22;;;;;;;21.76;41.06;100767.22;10449206;28;20436;-63
2021/08/24 14:57:56;;;;;;;5.85;2.30;;;;;;;21.70;40.10;100767.00;10448372;28;20055;-63
2021/08/24 15:03:20;;;;;;;6.00;2.15;;;;;;;22.00;40.35;100764.13;10442434;28;20056;-63
2021/08/24 15:08:26;;;;;;;5.15;2.70;;;;;;;22.36;39.57;100755.31;10426644;28;20065;-63
2021/08/24 15:13:32;;;;;;;4.28;2.45;;;;;;;22.29;38.95;100759.53;10415859;28;20103;-63
2021/08/24 15:18:57;;;;;;;7.65;2.60;;;;;;;22.18;37.95;100758.88;10432262;28;20068;-63
2021/08/24 15:24:09;;;;;;;4.35;2.30;;;;;;;22.08;38.38;100760.75;10444471;28;20148;-63
2021/08/24 15:29:14;;;;;;;5.38;2.70;;;;;;;21.90;38.50;100756.13;10442822;28;20143;-63
2021/08/24 15:34:18;;;;;;;3.85;2.28;;;;;;;21.87;38.22;100752.91;10448715;28;20051;-64
2021/08/24 15:39:20;;;;;;;5.15;2.53;;;;;;;21.35;38.70;100756.94;10448518;28;20136;-63
2021/08/24 15:44:22;;;;;;;5.25;2.63;;;;;;;21.55;39.62;100747.09;10448638;28;20144;-63
2021/08/24 15:49:26;;;;;;;4.75;2.75;;;;;;;21.79;39.13;100734.16;10446569;28;20081;-64
2021/08/24 15:54:28;;;;;;;6.82;3.28;;;;;;;22.02;38.79;100737.31;10445806;28;20084;-64
2021/08/24 15:59:32;;;;;;;8.82;2.45;;;;;;;21.74;38.54;100739.09;10447507;28;20132;-64
2021/08/24 16:04:36;;;;;;;4.85;2.65;;;;;;;21.72;38.79;100739.22;10447611;28;20040;-64
2021/08/24 16:09:38;;;;;;;4.50;2.25;;;;;;;21.54;38.98;100740.09;10447643;28;20091;-64
2021/08/24 16:14:40;;;;;;;5.28;2.70;;;;;;;21.32;38.46;100741.22;10447013;28;20083;-63
2021/08/24 16:19:42;;;;;;;6.03;2.70;;;;;;;20.89;38.66;100724.78;10425069;28;20118;-64
2021/08/24 16:24:44;;;;;;;6.65;2.85;;;;;;;20.64;38.60;100734.13;10446322;28;20045;-63
2021/08/24 16:29:45;;;;;;;6.13;3.20;;;;;;;20.53;39.87;100734.22;10444600;28;20143;-64
2021/08/24 16:34:49;;;;;;;4.88;2.58;;;;;;;20.41;39.96;100732.66;10447115;28;20481;-64
2021/08/24 16:39:52;;;;;;;8.00;2.67;;;;;;;20.65;39.66;100738.47;10446575;28;20049;-64
2021/08/24 16:44:54;;;;;;;7.35;2.55;;;;;;;20.68;39.56;100732.06;10445028;28;20124;-63
2021/08/24 16:49:55;;;;;;;6.65;3.65;;;;;;;20.64;39.10;100739.44;10420482;28;20128;-65
2021/08/24 16:54:57;;;;;;;6.13;2.88;;;;;;;20.73;39.04;100733.31;10446060;28;20084;-64
2021/08/24 16:59:59;;;;;;;7.38;2.88;;;;;;;20.82;39.25;100723.69;10445597;28;20468;-64
2021/08/24 17:05:01;;;;;;;5.47;2.80;;;;;;;20.71;40.13;100721.13;10442490;28;20045;-63
2021/08/24 17:10:05;;;;;;;7.15;3.40;;;;;;;20.53;39.60;100733.38;10451476;28;20056;-64
2021/08/24 17:15:11;;;;;;;7.72;3.53;;;;;;;20.44;40.05;100732.34;10444973;28;20045;-64
2021/08/24 17:20:15;;;;;;;6.80;3.15;;;;;;;20.05;39.51;100735.84;10438781;28;20147;-64
2021/08/24 17:25:41;;;;;;;5.78;3.10;;;;;;;19.89;40.57;100749.59;10425266;28;20045;-64
2021/08/24 17:30:44;;;;;;;7.57;3.78;;;;;;;20.03;40.73;100751.09;10429499;28;20045;-63
2021/08/24 17:35:46;;;;;;;6.50;3.38;;;;;;;19.85;40.88;100748.16;10442501;28;20053;-64
2021/08/24 17:40:49;;;;;;;37.47;24.48;;;;;;;19.71;41.36;100748.47;10442207;28;20125;-64
2021/08/24 17:45:53;;;;;;;7.25;3.58;;;;;;;19.63;41.71;100763.34;10425446;28;20132;-64
2021/08/24 17:56:05;;;;;;;32.20;19.17;;;;;;;19.23;42.64;100753.44;10443999;28;20132;-64
2021/08/24 18:01:08;;;;;;;9.13;3.78;;;;;;;19.02;42.33;100749.03;10446683;28;20049;-64
2021/08/24 18:06:26;;;;;;;8.10;3.90;;;;;;;18.97;43.20;100741.44;10447986;28;20057;-64
2021/08/24 18:11:28;;;;;;;7.43;3.63;;;;;;;18.84;43.11;100742.56;10414318;28;20131;-64
2021/08/24 18:16:30;;;;;;;12.45;4.07;;;;;;;18.67;44.76;100747.41;10452471;28;20458;-64
2021/08/24 18:21:32;;;;;;;7.00;3.65;;;;;;;18.49;44.74;100750.69;10450754;28;20053;-63
2021/08/24 18:26:34;;;;;;;9.60;4.07;;;;;;;18.32;45.91;100741.44;10450674;28;20092;-64
2021/08/24 18:31:36;;;;;;;6.38;3.80;;;;;;;18.27;45.72;100740.13;10451322;28;20115;-64
2021/08/24 18:36:38;;;;;;;5.70;3.50;;;;;;;18.16;45.63;100742.72;10450471;28;20051;-64
2021/08/24 18:41:43;;;;;;;8.07;3.90;;;;;;;17.92;46.75;100747.28;10450173;28;20131;-59
2021/08/24 18:46:45;;;;;;;8.32;4.15;;;;;;;17.68;47.99;100748.22;10450543;28;20101;-59
2021/08/24 18:51:47;;;;;;;8.52;4.10;;;;;;;17.53;48.29;100754.66;10415508;28;20084;-59
2021/08/24 18:56:48;;;;;;;7.43;4.50;;;;;;;17.45;48.53;100754.41;10433359;28;20040;-60
2021/08/24 19:01:50;;;;;;;8.52;4.10;;;;;;;17.37;48.61;100762.06;10436432;28;20128;-59
2021/08/24 19:06:52;;;;;;;8.65;4.10;;;;;;;17.22;49.65;100763.16;10431164;28;20053;-60
2021/08/24 19:11:54;;;;;;;6.10;4.07;;;;;;;17.10;50.55;100761.44;10448364;28;20076;-59
2021/08/24 19:16:56;;;;;;;8.15;3.97;;;;;;;17.00;51.68;100763.06;10434881;28;20132;-59
2021/08/24 19:21:58;;;;;;;7.32;4.00;;;;;;;16.80;51.67;100774.22;10436214;28;20099;-60
2021/08/24 19:27:01;;;;;;;8.15;4.18;;;;;;;16.66;51.98;100777.88;10432072;28;20137;-59
2021/08/24 19:32:03;;;;;;;5.75;4.00;;;;;;;16.46;53.12;100775.81;10441614;28;20056;-60
2021/08/24 19:37:05;;;;;;;7.68;4.00;;;;;;;16.25;54.14;100777.28;10448567;28;20053;-60
2021/08/24 19:42:07;;;;;;;9.10;4.20;;;;;;;16.11;54.58;100780.03;10442385;28;20480;-59
2021/08/24 19:47:08;;;;;;;8.35;4.13;;;;;;;16.04;54.55;100768.22;10466339;28;20131;-59
2021/08/24 19:52:13;;;;;;;7.97;4.40;;;;;;;15.95;54.91;100777.63;10467689;28;20102;-60
2021/08/24 19:57:15;;;;;;;7.53;4.28;;;;;;;15.88;55.45;100768.41;10468858;28;20054;-59
2021/08/24 20:02:18;;;;;;;10.65;3.88;;;;;;;15.77;55.84;100767.47;10451099;28;20052;-59
2021/08/24 20:07:20;;;;;;;6.82;4.30;;;;;;;15.47;55.98;100772.16;10465662;28;20545;-59
2021/08/24 20:12:27;;;;;;;10.32;4.20;;;;;;;15.11;57.45;100780.66;10459705;28;20736;-59
2021/08/24 20:17:29;;;;;;;5.70;3.97;;;;;;;15.04;57.63;100779.38;10464905;28;20053;-59
2021/08/24 20:22:31;;;;;;;8.52;4.30;;;;;;;14.87;57.66;100775.19;10455664;28;20568;-60
2021/08/24 20:27:33;;;;;;;9.63;4.05;;;;;;;14.73;58.70;100775.25;10457131;28;20083;-59
2021/08/24 20:32:35;;;;;;;6.78;4.15;;;;;;;14.81;58.58;100785.28;10460059;28;20128;-59
2021/08/24 20:37:36;;;;;;;10.63;4.20;;;;;;;14.77;58.88;100784.63;10452214;28;20470;-59
2021/08/24 20:42:41;;;;;;;8.70;4.30;;;;;;;14.76;58.99;100790.00;10460915;28;20131;-59
2021/08/24 20:47:42;;;;;;;6.55;4.20;;;;;;;14.67;59.46;100783.53;10456639;28;20155;-59
2021/08/24 20:52:45;;;;;;;6.32;4.10;;;;;;;14.64;59.33;100781.06;10452585;28;20041;-59
2021/08/24 20:57:47;;;;;;;10.05;4.30;;;;;;;14.54;59.58;100780.81;10460817;28;20076;-59
2021/08/24 21:02:48;;;;;;;8.40;4.45;;;;;;;14.54;59.62;100774.69;10468631;28;20143;-59
2021/08/24 21:07:51;;;;;;;8.32;4.15;;;;;;;14.49;59.52;100769.72;10452359;28;20456;-59
2021/08/24 21:12:54;;;;;;;7.07;4.03;;;;;;;14.37;59.63;100786.22;10458266;28;20513;-60
2021/08/24 21:17:57;;;;;;;7.78;4.25;;;;;;;14.26;60.10;100791.34;10470837;28;20514;-60
2021/08/24 21:22:59;;;;;;;9.23;3.72;;;;;;;14.22;60.16;100784.56;10464682;28;20046;-59
2021/08/24 21:28:01;;;;;;;7.75;4.43;;;;;;;14.01;60.17;100785.84;10461723;28;20140;-59
2021/08/24 21:33:03;;;;;;;7.47;4.05;;;;;;;13.63;61.12;100784.66;10458141;28;20409;-59
2021/08/24 21:38:05;;;;;;;7.07;4.40;;;;;;;13.60;60.99;100782.22;10450089;28;20136;-59
2021/08/24 21:43:06;;;;;;;6.93;4.22;;;;;;;13.60;61.44;100774.31;10461820;28;20132;-59
2021/08/24 21:48:08;;;;;;;7.95;4.15;;;;;;;13.62;61.36;100777.72;10468075;28;20131;-59
2021/08/24 21:53:10;;;;;;;6.63;3.78;;;;;;;13.58;61.43;100786.72;10471927;28;20049;-60
2021/08/24 21:58:12;;;;;;;10.30;3.97;;;;;;;13.57;61.30;100780.63;10453318;28;20548;-59
2021/08/24 22:03:14;;;;;;;6.35;3.80;;;;;;;13.54;61.25;100779.94;10467458;28;20131;-59
2021/08/24 22:08:26;;;;;;;8.95;4.07;;;;;;;13.39;61.60;100778.19;10450444;28;20471;-60
2021/08/24 22:13:28;;;;;;;8.07;4.22;;;;;;;13.20;61.78;100777.53;10456889;28;20045;-59
2021/08/24 22:18:29;;;;;;;8.45;3.97;;;;;;;13.17;62.17;100788.25;10465826;28;20456;-59
2021/08/24 22:23:34;;;;;;;10.70;3.92;;;;;;;13.12;62.32;100782.38;10452534;28;20124;-60
2021/08/24 22:28:38;;;;;;;9.30;4.10;;;;;;;13.05;62.61;100781.06;10460407;28;20966;-59
2021/08/24 22:33:40;;;;;;;11.38;4.10;;;;;;;13.01;62.49;100784.75;10469035;28;20076;-59
2021/08/24 22:38:45;;;;;;;7.47;4.10;;;;;;;12.96;62.68;100787.66;10448489;28;20441;-59
2021/08/24 22:43:49;;;;;;;5.38;3.55;;;;;;;12.96;62.82;100783.22;10445556;28;20152;-59
2021/08/24 22:48:51;;;;;;;8.73;3.80;;;;;;;12.99;62.72;100784.84;10463314;28;20052;-59
2021/08/24 22:53:53;;;;;;;7.75;3.88;;;;;;;12.96;62.44;100782.41;10463042;28;20072;-59
2021/08/24 22:58:56;;;;;;;12.73;4.18;;;;;;;12.86;62.59;100776.81;10468046;28;20547;-59
2021/08/24 23:03:57;;;;;;;7.65;3.83;;;;;;;12.77;62.82;100779.09;10458245;28;20072;-59
2021/08/24 23:08:59;;;;;;;6.68;3.90;;;;;;;12.78;62.82;100784.25;10460535;28;20147;-59
2021/08/24 23:14:04;;;;;;;8.75;3.80;;;;;;;12.72;63.02;100783.78;10460864;28;20071;-59
2021/08/24 23:19:06;;;;;;;9.55;4.22;;;;;;;12.59;62.73;100778.34;10446696;28;20131;-59